Tiempo atmosférico en la estación meteorológica de Valladolid, Valladolid (735 m.)



Fecha
DESCASC
Temp. máxima en grados centígrados (hora)
DESCASC
Temp. mínima en grados centígrados (hora)
DESCASC
Temp. media en grados centígrados
DESCASC
Racha de viento máxima en m/sg (hora)
DESCASC
Velocidad máxima media en intervalos de 10 minutos(hora)
DESCASC
Precipitaciones diarias en mm
DESCASC
Precipitaciones de 00:00 a 06:00 en mm
DESCASC
Precipitaciones de 06:00 a 12:00 en mm
DESCASC
Precipitaciones de 12:00 a 18:00 en mm
DESCASC
Precipitaciones de 18:00 a 24:00 en mm
DESCASC
22-01-2020 10.7 (14:50) 2.5 (23:59) 6.6 10.28 (06:20) 5 (11:20) 0 0 0 0 0
21-01-2020 4.6 (14:00) 0.3 (00:00) 2.4 14.72 (15:00) 4.17 (16:30) 0 0 0 0 0
20-01-2020 3.4 (14:10) 0.1 (08:30) 1.8 15 (17:40) 4.44 (12:30) 0 0 0 0 0
19-01-2020 7.1 (14:20) 1.6 (00:00) 4.3 15.28 (12:30) 4.44 (14:20) 0 0 0 0 0
18-01-2020 12.3 (16:00) 3.9 (00:00) 8.1 18.33 (18:20) 8.33 (18:20) 2.4 0 0.4 0.2 1.8
17-01-2020 10.8 (16:00) 5 (00:00) 7.9 10.28 (13:20) 5.28 (14:00) 2.2 2 0.2 0 0
16-01-2020 14.4 (15:30) 6.4 (00:00) 10.4 12.22 (15:40) 4.72 (15:40) 1.8 0 0 0 1.8
15-01-2020 10.7 (17:20) 5.3 (00:00) 8 8.33 (04:00) 3.33 (05:40) 0.8 0 0.8 0 0
14-01-2020 10 (14:50) -1.9 (-00:0) 4.1 7.78 (15:00) 3.89 (04:20) 0.2 0 0 0 0.2
13-01-2020 1.1 (16:30) -2.7 (-00:0) -0.8 4.44 (13:40) 1.94 (13:40) 0 0 0 0 0
12-01-2020 4.9 (16:00) -4.3 (07:30) 0.3 2.78 (11:10) 1.67 (18:00) 0 0 0 0 0
11-01-2020 1.6 (00:30) -2.4 (-00:0) -0.4 3.89 (09:40) 2.5 (09:40) 0 0 0 0 0
10-01-2020 9.3 (15:10) -0.4 (00:00) 4.5 5.83 (00:10) 2.78 (00:10) 0 0 0 0 0
09-01-2020 10.3 (17:10) -0.5 (-00:0) 4.9 8.33 (19:50) 4.17 (18:40) 0 0 0 0 0
08-01-2020 7.3 (15:40) -2.4 (-00:0) 2.5 3.61 (17:30) 2.22 (17:30) 0 0 0 0 0
07-01-2020 2.7 (15:40) -3.1 (-00:0) -0.2 3.33 (01:40) 2.22 (19:50) 0 0 0 0 0
06-01-2020 1 (16:10) -1.8 (-00:0) -0.4 2.78 (09:20) 1.67 (09:20) 0 0 0 0 0
05-01-2020 1.8 (17:00) -1.2 (-00:0) 0.3 3.33 (00:30) 2.22 (00:30) 0 0 0 0 0
04-01-2020 7.9 (16:20) 1.4 (00:00) 4.7 6.11 (14:00) 1.67 (13:40) 0 0 0 0 0
03-01-2020 6.5 (15:20) -1 (-00:0) 2.8 4.72 (04:10) 3.33 (04:10) 0 0 0 0 0
02-01-2020 7.1 (15:50) -2.9 (-00:0) 2.1 2.78 (18:30) 1.94 (18:30) 0 0 0 0 0
01-01-2020 6.3 (15:40) -2.3 (-00:0) 2 2.22 (07:20) 1.11 (07:00) 0 0 0 0 0
31-12-2019 5.9 (16:00) -1.3 (-00:0) 2.3 2.22 (11:30) 1.39 (11:10) 0 0 0 0 0
30-12-2019 6.5 (15:50) -1.3 (-00:0) 2.6 2.22 (02:20) 1.39 (02:30) 0 0 0 0 0
29-12-2019 9.1 (15:50) -1.5 (-00:0) 3.8 2.5 (10:40) 1.11 (10:40) 0 0 0 0 0
28-12-2019 7 (16:00) -1 (-00:0) 3 2.78 (03:10) 1.67 (19:20) 0 0 0 0 0
27-12-2019 2.9 (00:00) 0 (00:00) 1.5 3.61 (10:50) 1.67 (10:50) 0 0 0 0 0
26-12-2019 11.5 (15:10) 2.9 (00:00) 7.2 3.33 (00:40) 1.94 (00:10) 0 0 0 0 0
25-12-2019 10.1 (15:10) 5.5 (00:00) 7.8 3.61 (06:30) 1.94 (23:20) 0 0 0 0 0

Gráficas

Temp. máximas Temp. mínimas Temp. medias Precipitaciones Rachas de viento máximas Velocidades máximas media en intervalos de 10 minutos

Datos horarios

Fecha y hora oficial Temperatura (ºC) Velocidad del viento (km/h) Dirección del viento Racha (km/h) Dirección de racha Precipitación (mm) Presión (hPa) Tendencia (hPa) Humedad (%)
2020-01-23 23:00:00 5.2 2 Noroeste 6 Nordeste 0 932.8 1.1 85
2020-01-23 22:00:00 5.5 3 Sudeste 10 Sudeste 0 932.6 1.3 84
2020-01-23 21:00:00 6.4 3 Sur 10 Sur 0 932.2 1.4 74
2020-01-23 20:00:00 7 5 Sudeste 9 Sur 0 931.7 1.1 72
2020-01-23 19:00:00 7.4 4 Sudeste 9 Sudeste 0 931.3 0.5 75
2020-01-23 18:00:00 8.5 2 Este 5 Nordeste 0 930.8 -0.2 75
2020-01-23 17:00:00 9.5 2 Nordeste 7 Nordeste 0 930.6 -1.1 69
2020-01-23 16:00:00 10.4 4 Nordeste 13 Nordeste 0 930.8 -1.5 65
2020-01-23 15:00:00 9.4 3 Norte 11 Noroeste 0 931 -2 70
2020-01-23 14:00:00 9.1 3 Norte 11 Nordeste 0 931.7 -1.2 72
2020-01-23 13:00:00 6.9 4 Nordeste 9 Nordeste 0 932.3 -0.5 79
2020-01-23 12:00:00 4.5 2 Nordeste 10 Norte 0 933 0.9 87
2020-01-23 11:00:00 2.9 3 Norte 9 Noroeste 0 932.9 1.1 91
2020-01-23 10:00:00 1.1 3 Noroeste 9 Norte 0 932.8 1.4 97
2020-01-23 09:00:00 -0.5 3 Noroeste 10 Noroeste 0 932.1 0.9 98
2020-01-23 08:00:00 -0.4 3 Noroeste 9 Nordeste 0 931.8 0.5 98
2020-01-23 07:00:00 -0.5 3 Norte 9 Noroeste 0 931.4 -0.3 97
2020-01-23 06:00:00 -0.2 4 Norte 9 Norte 0 931.2 -0.8 97
2020-01-23 05:00:00 0.2 4 Noroeste 9 Noroeste 0 931.3 -0.9 96
2020-01-23 04:00:00 0.4 3 Noroeste 7 Noroeste 0 931.7 -0.7 96
2020-01-23 03:00:00 0.8 3 Norte 6 Este 0 932 -0.7 95
2020-01-23 02:00:00 1.6 3 Nordeste 10 Este 0 932.2 -0.1 92
2020-01-23 01:00:00 2.3 4 Este 9 Este 0 932.4 0.2 92
2020-01-23 00:00:00 2.5 3 Norte 9 Norte 0 932.7 0.6 91
2020-01-22 23:00:00 3 3 Noroeste 9 Norte 0 932.3 0.5 88
2020-01-22 22:00:00 4.2 3 Norte 16 Este 0 932.2 0.6 83
2020-01-22 21:00:00 5.5 4 Nordeste 11 Nordeste 0 932.1 0.9 81
2020-01-22 20:00:00 6.1 5 Nordeste 14 Noroeste 0 931.8 0.5 80
2020-01-22 19:00:00 7.7 4 Nordeste 14 Este 0 931.6 0 73
2020-01-22 18:00:00 8.5 3 Nordeste 17 Nordeste 0 931.2 -1 69
2020-01-22 17:00:00 9.8 9 Este 19 Este 0 931.3 -1.7 62
2020-01-22 16:00:00 10.2 8 Nordeste 23 Nordeste 0 931.6 -2.3 62
2020-01-22 15:00:00 9.9 11 Este 22 Nordeste 0 932.2 -2.3 62
2020-01-22 14:00:00 8.5 9 Nordeste 27 Nordeste 0 933 -1.3 69
2020-01-22 13:00:00 7.7 10 Nordeste 32 Este 0 933.9 -0.3 73
2020-01-22 12:00:00 6.5 11 Este 33 Este 0 934.5 0.6 76
2020-01-22 11:00:00 5.6 10 Este 27 Nordeste 0 934.3 0.7 80
2020-01-22 10:00:00 3.9 9 Nordeste 23 Este 0 934.2 1 87
2020-01-22 09:00:00 3.2 8 Nordeste 27 Nordeste 0 933.9 0.5 89
2020-01-22 08:00:00 3.3 8 Nordeste 30 Nordeste 0 933.6 -0.3 89
2020-01-22 07:00:00 3.3 7 Nordeste 37 Nordeste 0 933.2 -1 90
2020-01-22 06:00:00 3.5 10 Nordeste 36 Este 0 933.4 -0.7 90
2020-01-22 05:00:00 3.6 6 Nordeste 30 Nordeste 0 933.9 -0.4 89
2020-01-22 04:00:00 3.4 7 Nordeste 29 Nordeste 0 934.2 -0.3 90
2020-01-22 03:00:00 3.3 10 Nordeste 28 Nordeste 0 934.1 -0.9 88
2020-01-22 02:00:00 3.3 8 Nordeste 28 Nordeste 0 934.3 -0.2 88
2020-01-22 01:00:00 3.1 10 Nordeste 35 Nordeste 0 934.5 0.7 88
2020-01-22 00:00:00 3.1 8 Norte 27 Norte 0 935 1.3 85
2020-01-21 23:00:00 3.3 7 Nordeste 36 Nordeste 0 934.5 0.7 85
2020-01-21 22:00:00 3.1 12 Nordeste 42 Nordeste 0 933.8 -0.3 86
2020-01-21 21:00:00 3 11 Nordeste 41 Nordeste 0 933.7 -0.3 87
2020-01-21 20:00:00 3 8 Norte 38 Este 0 933.8 -0.4 85
2020-01-21 19:00:00 3 10 Nordeste 36 Norte 0 934.1 0.3 85
2020-01-21 18:00:00 3.1 12 Nordeste 44 Nordeste 0 934 -0.3 85
2020-01-21 17:00:00 3.9 12 Nordeste 46 Norte 0 934.2 -0.5 79
2020-01-21 16:00:00 4.5 9 Nordeste 40 Este 0 933.8 -1.9 76
2020-01-21 15:00:00 4.6 12 Nordeste 53 Nordeste 0 934.3 -2.5 75
2020-01-21 14:00:00 4.5 12 Nordeste 49 Este 0 934.7 -2.1 74
2020-01-21 13:00:00 3.6 10 Norte 36 Norte 0 935.7 -1.6 76
2020-01-21 12:00:00 2.8 11 Nordeste 38 Norte 0 936.8 -0.6 80
2020-01-21 11:00:00 2.9 12 Norte 49 Nordeste 0 936.8 -0.6 75
2020-01-21 10:00:00 2.2 11 Nordeste 37 Este 0 937.3 0 74
2020-01-21 09:00:00 1.2 10 Norte 35 Nordeste 0 937.4 -0.1 77
2020-01-21 08:00:00 0.9 11 Nordeste 41 Nordeste 0 937.4 -1.1 82
2020-01-21 07:00:00 1 11 Nordeste 42 Nordeste 0 937.3 -1.5 77
2020-01-21 06:00:00 0.9 12 Nordeste 45 Norte 0 937.5 -1.6 76
2020-01-21 05:00:00 1 13 Nordeste 42 Nordeste 0 938.5 -1 75
2020-01-21 04:00:00 1.2 11 Nordeste 46 Nordeste 0 938.8 -1.6 75
2020-01-21 03:00:00 1 11 Nordeste 47 Norte 0 939.1 -1.6 78
2020-01-21 02:00:00 0.8 13 Nordeste 39 Este 0 939.5 -1.2 80
2020-01-21 01:00:00 0.6 10 Nordeste 32 Nordeste 0 940.4 -0.2 78
2020-01-21 00:00:00 0.3 12 Nordeste 41 Norte 0 940.7 0.3 80
2020-01-20 23:00:00 0.2 9 Nordeste 44 Nordeste 0 940.7 0.6 76
2020-01-20 22:00:00 0.5 11 Nordeste 43 Noroeste 0 940.6 0.7 71
2020-01-20 21:00:00 0.9 11 Nordeste 44 Nordeste 0 940.4 1.1 68
2020-01-20 20:00:00 1.3 11 Nordeste 37 Norte 0 940.1 0.6 67
2020-01-20 19:00:00 1.6 15 Nordeste 45 Nordeste 0 939.9 0.6 66
2020-01-20 18:00:00 1.9 11 Nordeste 54 Nordeste 0 939.3 -0.2 63
2020-01-20 17:00:00 2.4 13 Nordeste 50 Nordeste 0 939.5 -0.6 62
2020-01-20 16:00:00 2.7 10 Nordeste 45 Nordeste 0 939.3 -1.5 59
2020-01-20 15:00:00 2.7 9 Nordeste 48 Nordeste 0 939.5 -1.6 60
2020-01-20 14:00:00 3.3 13 Norte 51 Este 0 940.1 -1.3 55
2020-01-20 13:00:00 2.6 15 Nordeste 50 Nordeste 0 940.8 -0.2 54
2020-01-20 12:00:00 2.3 13 Nordeste 43 Nordeste 0 941.1 -0.1 54
2020-01-20 11:00:00 1.2 12 Nordeste 52 Este 0 941.4 1 61
2020-01-20 10:00:00 1 12 Nordeste 37 Nordeste 0 941 0.5 64
2020-01-20 09:00:00 0.2 12 Nordeste 34 Este 0 941.2 0 66
2020-01-20 08:00:00 0.2 12 Nordeste 37 Este 0 940.4 -1.3 66
2020-01-20 07:00:00 0.2 8 Nordeste 30 Norte 0 940.5 -1.5 66
2020-01-20 06:00:00 0.2 7 Norte 32 Nordeste 0 941.2 -1.1 68
2020-01-20 05:00:00 0.5 7 Nordeste 41 Este 0 941.7 -1 68
2020-01-20 04:00:00 1 14 Nordeste 39 Nordeste 0 942 -1.1 66
2020-01-20 03:00:00 1 9 Norte 42 Norte 0 942.3 -0.7 64
2020-01-20 02:00:00 1.3 14 Nordeste 40 Nordeste 0 942.7 0 64
2020-01-20 01:00:00 1.5 10 Nordeste 44 Nordeste 0 943.1 0.8 64
2020-01-20 00:00:00 1.6 11 Nordeste 43 Nordeste 0 943 0.4 66
2020-01-19 23:00:00 2.1 10 Nordeste 45 Nordeste 0 942.7 0.8 63
2020-01-19 22:00:00 2.1 10 Nordeste 36 Nordeste 0 942.3 0.7 63
2020-01-19 21:00:00 2.1 9 Nordeste 41 Nordeste 0 942.6 1.1 64
2020-01-19 20:00:00 2.3 12 Norte 47 Nordeste 0 941.9 0.6 64
2020-01-19 19:00:00 2.9 13 Norte 36 Nordeste 0 941.6 1 61
2020-01-19 18:00:00 3.7 11 Norte 50 Nordeste 0 941.5 1.3 57
2020-01-19 17:00:00 4.9 13 Norte 52 Norte 0 941.3 0.7 51
2020-01-19 16:00:00 6.1 14 Norte 51 Noroeste 0 940.6 0 49
2020-01-19 15:00:00 6.6 14 Norte 48 Nordeste 0 940.2 -0.4 54
2020-01-19 14:00:00 6.6 15 Norte 50 Nordeste 0 940.6 0.2 52
2020-01-19 13:00:00 6.5 15 Norte 55 Norte 0 940.6 1.2 51
2020-01-19 12:00:00 5.8 13 Norte 41 Norte 0 940.6 2.2 63
2020-01-19 11:00:00 5.4 10 Norte 31 Nordeste 0 940.4 2.9 72
2020-01-19 10:00:00 4.7 9 Norte 26 Norte 0 939.4 2.7 85
2020-01-19 09:00:00 4.4 9 Norte 19 Norte 0 938.4 2.4 86
2020-01-19 08:00:00 3.4 5 Norte 16 Nordeste 0 937.5 1.8 91
2020-01-19 07:00:00 2.9 4 Norte 9 Norte 0 936.7 1.1 95
2020-01-19 06:00:00 2.6 3 Norte 13 Noroeste 0 936 0.4 95
2020-01-19 05:00:00 2.2 5 Noroeste 13 Norte 0 935.7 0.1 95
2020-01-19 04:00:00 2.6 4 Norte 14 Noroeste 0 935.6 0.8 92
2020-01-19 03:00:00 3.1 5 Norte 15 Nordeste 0 935.6 0.7 91
2020-01-19 02:00:00 3.5 3 Noroeste 16 Noroeste 0 935.6 0.7 89
2020-01-19 01:00:00 4.2 6 Noroeste 15 Noroeste 0 934.8 0 85
2020-01-19 00:00:00 4.4 6 Oeste 14 Oeste 0 934.9 0.4 85
2020-01-18 23:00:00 5.3 4 Oeste 10 Sudoeste 0 934.9 1.1 86
2020-01-18 22:00:00 5.2 0 Calma 8 Oeste 0 934.8 1.9 91
2020-01-18 21:00:00 6.1 2 Norte 13 Sudoeste 0 934.5 2.6 89
2020-01-18 20:00:00 7.2 6 Oeste 33 Oeste 0 933.8 1.7 88
2020-01-18 19:00:00 9 21 Oeste 66 Oeste 1.8 932.9 0.8 80
2020-01-18 18:00:00 11.3 17 Oeste 55 Oeste 0 931.9 -1.5 79
2020-01-18 17:00:00 12 21 Oeste 49 Sur 0 932.1 -3.1 77
2020-01-18 16:00:00 12.2 14 Sudoeste 29 Sudoeste 0 932.1 -4.8 80
2020-01-18 15:00:00 10 7 Sudoeste 19 Sudoeste 0 933.4 -5.1 96
2020-01-18 14:00:00 8.4 6 Sur 15 Sur 0.2 935.2 -4.3 97
2020-01-18 13:00:00 7.7 7 Sur 18 Sur 0 936.9 -2.8 97
2020-01-18 12:00:00 6.3 7 Sudeste 17 Sur 0.4 938.5 -1.6 97
2020-01-18 11:00:00 6 6 Sur 13 Sur 0 939.5 -1.3 91
2020-01-18 10:00:00 5.3 3 Sudeste 10 Sur 0 939.7 -1.4 91
2020-01-18 09:00:00 4.5 5 Sur 10 Sur 0 940.1 -1.4 92
2020-01-18 08:00:00 4.4 4 Sudeste 9 Sur 0 940.8 -1 89
2020-01-18 07:00:00 3.9 4 Sudeste 10 Sur 0 941.1 -1.6 89
2020-01-18 06:00:00 4 5 Sur 14 Sur 0 941.5 -1.3 88
2020-01-18 05:00:00 4 5 Sur 14 Sur 0 941.8 -1.4 87
2020-01-18 04:00:00 4.1 3 Sur 7 Sur 0 942.7 -0.9 87
2020-01-18 03:00:00 4 0 Calma 8 Nordeste 0 942.8 -1 89
2020-01-18 02:00:00 4 3 Oeste 5 Oeste 0 943.2 -1 88
2020-01-18 01:00:00 4.2 2 Sur 5 Oeste 0 943.6 -0.7 87
2020-01-18 00:00:00 5.1 3 Sudeste 6 Sudeste 0 943.8 -1.1 83
2020-01-17 23:00:00 5.7 3 Este 8 Sudoeste 0 944.2 -0.7 80
2020-01-17 22:00:00 5.9 3 Sur 5 Sudeste 0 944.3 -0.1 75
2020-01-17 21:00:00 6.1 2 Sur 10 Oeste 0 944.9 0.7 76
2020-01-17 20:00:00 6.2 5 Oeste 13 Oeste 0 944.9 0.9 76
2020-01-17 19:00:00 7.3 8 Oeste 18 Oeste 0 944.4 0.8 69
2020-01-17 18:00:00 8.2 9 Oeste 21 Sudoeste 0 944.2 0.9 67
2020-01-17 17:00:00 9.3 8 Oeste 22 Oeste 0 944 0.5 61
2020-01-17 16:00:00 10.6 10 Oeste 28 Oeste 0 943.6 -0.3 54
2020-01-17 15:00:00 9.6 14 Oeste 31 Oeste 0 943.3 -0.5 63
2020-01-17 14:00:00 8.7 19 Oeste 37 Oeste 0 943.5 0.6 69
2020-01-17 13:00:00 8.9 16 Oeste 33 Oeste 0 943.9 1.4 68
2020-01-17 12:00:00 8.4 14 Oeste 34 Oeste 0 943.8 2.3 76
2020-01-17 11:00:00 7.6 11 Oeste 29 Oeste 0 942.9 2.1 84
2020-01-17 10:00:00 6.7 9 Sudoeste 19 Sudoeste 0 942.5 2.5 93
2020-01-17 09:00:00 6.4 9 Sudoeste 19 Sudoeste 0 941.5 2.2 96
2020-01-17 08:00:00 6.2 6 Sudoeste 20 Sudoeste 0.2 940.8 1.8 97
2020-01-17 07:00:00 6.3 9 Sudoeste 22 Sudoeste 0 940 1 97
2020-01-17 06:00:00 6.4 8 Sudoeste 18 Sudoeste 0 939.3 0.4 96
2020-01-17 05:00:00 6.5 4 Sudoeste 14 Sudoeste 1 939 0.5 97
2020-01-17 04:00:00 6.6 6 Sudoeste 19 Sudoeste 0 939 0.7 97
2020-01-17 03:00:00 6.2 4 Sudoeste 14 Sur 0 938.9 0.5 97
2020-01-17 02:00:00 6.6 6 Sur 16 Sur 0 938.5 0.7 96
2020-01-17 01:00:00 6.9 5 Sur 18 Sudoeste 1 938.3 0.9 95
2020-01-17 00:00:00 7.5 11 Sudoeste 36 Sudoeste 0.6 938.4 1.4 92
2020-01-16 23:00:00 8.1 6 Sudoeste 19 Sudoeste 0.2 937.8 1 81
2020-01-16 22:00:00 7.9 7 Sur 26 Sur 0 937.4 1 81
2020-01-16 21:00:00 8.4 11 Sur 24 Sur 1 937 1.3 78
2020-01-16 20:00:00 9.6 8 Sur 20 Sudoeste 0 936.8 0.9 70
2020-01-16 19:00:00 9.7 6 Sur 22 Sur 0 936.4 0.3 68
2020-01-16 18:00:00 10.2 8 Sudoeste 36 Sudoeste 0 935.7 -0.7 63
2020-01-16 17:00:00 10.9 11 Sudoeste 35 Sudoeste 0 935.9 -1.5 59
2020-01-16 16:00:00 13.3 14 Sudoeste 44 Sudoeste 0 936.1 -2.1 48
2020-01-16 15:00:00 14 10 Sudoeste 37 Sudoeste 0 936.4 -2.6 52
2020-01-16 14:00:00 13.4 13 Sudoeste 36 Sudoeste 0 937.4 -2 59
2020-01-16 13:00:00 12.5 14 Sudoeste 32 Sudoeste 0 938.2 -0.5 65
2020-01-16 12:00:00 10.7 10 Sudoeste 27 Sur 0 939 0.2 79
2020-01-16 11:00:00 8.5 5 Sudoeste 20 Sur 0 939.4 0.9 87
2020-01-16 10:00:00 7.1 7 Sur 16 Sudoeste 0 938.7 0.4 91
2020-01-16 09:00:00 6.7 7 Sur 19 Sur 0 938.8 0.7 90
2020-01-16 08:00:00 6.4 4 Sur 16 Sur 0 938.5 0.1 91
2020-01-16 07:00:00 6.7 6 Sur 16 Sur 0 938.3 -0.1 90
2020-01-16 06:00:00 7 8 Sur 17 Sur 0 938.1 -0.5 89
2020-01-16 05:00:00 6.7 5 Sur 15 Sudeste 0 938.4 -0.4 91
2020-01-16 04:00:00 6.8 6 Sur 14 Sur 0 938.4 -0.4 90
2020-01-16 03:00:00 6.8 5 Sudeste 12 Sur 0 938.6 -0.4 89
2020-01-16 02:00:00 7.3 5 Sur 15 Sur 0 938.8 -0.1 89
2020-01-16 01:00:00 7.4 4 Sur 12 Sudeste 0 938.8 0 91
2020-01-16 00:00:00 8 4 Sudeste 14 Sur 0 939 0.3 92
2020-01-15 23:00:00 8.3 6 Sur 14 Sur 0 938.9 0.4 94
2020-01-15 22:00:00 7.8 4 Sur 9 Sudoeste 0 938.8 0.9 93
2020-01-15 21:00:00 9 5 Sudoeste 16 Sudoeste 0 938.7 1.5 91
2020-01-15 20:00:00 9.2 4 Sur 18 Sur 0 938.5 1.8 89
2020-01-15 19:00:00 9.6 9 Sur 17 Sur 0 937.9 1.8 86
2020-01-15 18:00:00 10.3 6 Sur 19 Sur 0 937.2 1.2 84
2020-01-15 17:00:00 10.6 5 Sur 18 Sudoeste 0 936.7 0.5 84
2020-01-15 16:00:00 10 4 Sur 17 Sur 0 936.1 -0.2 84
2020-01-15 15:00:00 10 7 Sur 20 Sur 0 936 -0.8 81
2020-01-15 14:00:00 9.4 8 Sur 18 Sur 0 936.2 -0.1 79
2020-01-15 13:00:00 8.7 7 Sur 18 Sudoeste 0 936.3 1.6 84
2020-01-15 12:00:00 7.7 6 Sudoeste 22 Sudoeste 0.4 936.8 3.3 93
2020-01-15 11:00:00 6.8 6 Sudoeste 17 Sur 0.4 936.3 3.2 89
2020-01-15 10:00:00 6.4 3 Sur 18 Sur 0 934.7 2.1 80
2020-01-15 09:00:00 6.1 6 Sur 17 Sudeste 0 933.5 1 79
2020-01-15 08:00:00 6.3 10 Sur 19 Sur 0 933.1 0.6 79
2020-01-15 07:00:00 6.1 10 Sur 22 Sur 0 932.6 -0.4 83
2020-01-15 06:00:00 6.4 7 Sur 26 Sur 0 932.5 -0.6 85
2020-01-15 05:00:00 6.9 8 Sur 27 Sur 0 932.5 -0.6 83
2020-01-15 04:00:00 7.1 11 Sur 30 Sur 0 933 -0.3 85
2020-01-15 03:00:00 6.5 9 Sur 22 Sudoeste 0 933.1 -0.5 89
2020-01-15 02:00:00 5.4 6 Sur 22 Sur 0 933.1 -0.6 85
2020-01-15 01:00:00 5.4 8 Sur 21 Sur 0 933.3 -0.5 84
2020-01-15 00:00:00 5.7 8 Sur 18 Sur 0.2 933.6 -0.1 91
2020-01-14 23:00:00 6 7 Sur 21 Sur 0 933.7 -0.1 89
2020-01-14 22:00:00 5.9 3 Sudoeste 13 Sudoeste 0 933.8 0.1 90
2020-01-14 21:00:00 5.9 6 Sudoeste 13 Sudoeste 0 933.7 0.6 88
2020-01-14 20:00:00 6.1 6 Sudoeste 19 Sudoeste 0 933.8 0.6 85
2020-01-14 19:00:00 7.3 9 Sudoeste 23 Sudoeste 0 933.7 0.3 79
2020-01-14 18:00:00 8.6 7 Sur 19 Sudoeste 0 933.1 -0.6 73
2020-01-14 17:00:00 9.1 7 Sur 22 Oeste 0 933.2 -1.2 71
2020-01-14 16:00:00 9.6 10 Sudoeste 26 Sudoeste 0 933.4 -1.9 67
2020-01-14 15:00:00 9.8 11 Sudoeste 28 Sudoeste 0 933.7 -2.3 66
2020-01-14 14:00:00 9.1 6 Sur 17 Sur 0 934.4 -1.7 68
2020-01-14 13:00:00 6.4 8 Sur 18 Sur 0 935.3 -0.4 77
2020-01-14 12:00:00 3.6 10 Sur 19 Sur 0 936 0.7 87
2020-01-14 11:00:00 1.9 12 Sur 21 Sur 0 936.1 0.4 91
2020-01-14 10:00:00 0.8 12 Sur 21 Sur 0 935.7 0.6 94
2020-01-14 09:00:00 0 13 Sur 23 Sur 0 935.3 0.2 95
2020-01-14 08:00:00 -0.5 8 Sur 21 Sur 0 935.7 0.4 96
2020-01-14 07:00:00 -0.4 11 Sur 17 Sur 0 935.1 -0.6 96
2020-01-14 06:00:00 -0.4 12 Sur 21 Sur 0 935.1 -0.7 95
2020-01-14 05:00:00 -0.2 11 Sur 22 Sur 0 935.3 -0.5 94
2020-01-14 04:00:00 0.2 13 Sur 19 Sur 0 935.7 -0.9 94
2020-01-14 03:00:00 -0.5 6 Sur 16 Sur 0 935.8 -1.1 97
2020-01-14 02:00:00 -0.7 9 Sur 15 Sur 0 935.8 -0.9 100
2020-01-14 01:00:00 -1.1 10 Sur 15 Sur 0 936.6 0.1 100
2020-01-14 00:00:00 -1.7 2 Sudeste 6 Sudeste 0 936.9 0.5 100
2020-01-13 23:00:00 -1.5 4 Este 5 Este 0 936.7 1 100
2020-01-13 22:00:00 -1.4 4 Noroeste 9 Norte 0 936.5 0.7 100
2020-01-13 21:00:00 -1.3 5 Norte 10 Noroeste 0 936.4 0.2 100
2020-01-13 20:00:00 -0.8 4 Noroeste 8 Noroeste 0 935.7 -0.7 100
2020-01-13 19:00:00 -0.4 4 Noroeste 6 Noroeste 0 935.8 -1.2 98
2020-01-13 18:00:00 0.2 5 Noroeste 7 Noroeste 0 936.2 -1.4 98
2020-01-13 17:00:00 0.9 2 Norte 7 Sur 0 936.4 -1.8 97
2020-01-13 16:00:00 0.6 3 Sudeste 10 Sudeste 0 937 -2.2 98
2020-01-13 15:00:00 -0.2 4 Sur 12 Sudoeste 0 937.6 -2 99
2020-01-13 14:00:00 -0.6 5 Sur 16 Sudoeste 0 938.2 -1.5 99
2020-01-13 13:00:00 -1 6 Sur 12 Sudoeste 0 939.2 -0.3 100
2020-01-13 12:00:00 -1.5 3 Sur 14 Sur 0 939.6 0.4 100
2020-01-13 11:00:00 -2.3 4 Sudoeste 10 Sudoeste 0 939.7 0.6 100
2020-01-13 10:00:00 -2.4 5 Noroeste 10 Noroeste 0 939.5 0.2 100
2020-01-13 09:00:00 -2.6 3 Sur 9 Sudoeste 0 939.2 -0.4 100
2020-01-13 08:00:00 -2.4 3 Sur 9 Sudeste 0 939.1 -1.3 100
2020-01-13 07:00:00 -2.4 4 Sudeste 9 Sudeste 0 939.3 -1.8 100
2020-01-13 06:00:00 -2 4 Sudeste 9 Sudeste 0 939.6 -1.5 100
2020-01-13 05:00:00 -1.9 3 Sur 8 Este 0 940.4 -1.3 100
2020-01-13 04:00:00 -2.1 3 Noroeste 6 Noroeste 0 941.1 -1.3 100
2020-01-13 03:00:00 -2.4 2 Norte 6 Norte 0 941.1 -1.9 100
2020-01-13 02:00:00 -2.7 3 Norte 8 Norte 0 941.7 -1.3 100
2020-01-13 01:00:00 -1.9 5 Noroeste 10 Norte 0 942.4 -0.8 100
2020-01-13 00:00:00 -1.3 4 Norte 8 Norte 0 943 -0.5 100
2020-01-12 23:00:00 -0.7 4 Norte 9 Norte 0 943 -0.9 99
2020-01-12 22:00:00 0.2 3 Noroeste 6 Noroeste 0 943.2 -0.4 99
2020-01-12 21:00:00 0.5 3 Sudeste 6 Este 0 943.5 0.2 99
2020-01-12 20:00:00 0.8 2 Norte 5 Nordeste 0 943.9 0.7 98
2020-01-12 19:00:00 1.1 2 Nordeste 7 Sudoeste 0 943.6 0.4 93
2020-01-12 18:00:00 2.9 6 Sudoeste 9 Sudoeste 0 943.3 -0.4 83
2020-01-12 17:00:00 3.8 0 Calma 8 Sudoeste 0 943.2 -1.2 78
2020-01-12 16:00:00 4.8 4 Sudoeste 8 Sudoeste 0 943.2 -2.4 71
2020-01-12 15:00:00 2.6 3 Norte 5 Este 0 943.7 -2.5 82
2020-01-12 14:00:00 1 3 Este 8 Noroeste 0 944.4 -1.7 91
2020-01-12 13:00:00 -1.4 3 Noroeste 9 Nordeste 0 945.6 0.1 100
2020-01-12 12:00:00 -3.1 3 Norte 10 Norte 0 946.2 1.2 100
2020-01-12 11:00:00 -3.9 4 Norte 9 Norte 0 946.1 1.1 100
2020-01-12 10:00:00 -4 3 Norte 8 Norte 0 945.5 0.5 100
2020-01-12 09:00:00 -3.9 2 Noroeste 8 Este 0 945 0.2 100
2020-01-12 08:00:00 -4.2 4 Este 10 Este 0 945 0 100
2020-01-12 07:00:00 -4 2 Sudeste 7 Este 0 945 0.1 100
2020-01-12 06:00:00 -3.5 5 Sudeste 8 Sudeste 0 944.8 0 100
2020-01-12 05:00:00 -2.8 5 Este 8 Sudeste 0 945 0.1 100
2020-01-12 04:00:00 -2.1 4 Sudeste 8 Sudeste 0 944.9 -0.1 100
2020-01-12 03:00:00 -1.9 4 Sudeste 8 Sudeste 0 944.8 -0.4 100
2020-01-12 02:00:00 -2 4 Sur 8 Este 0 944.9 -0.3 100
2020-01-12 01:00:00 -2.1 3 Sur 8 Sudoeste 0 945 -0.2 100
2020-01-12 00:00:00 -2 5 Sur 11 Sudoeste 0 945.2 0.1 100
2020-01-11 23:00:00 -1.7 6 Sudeste 13 Sudeste 0 945.2 0 100
2020-01-11 22:00:00 -1.1 4 Sur 10 Sur 0 945.2 0.3 99
2020-01-11 21:00:00 -0.1 3 Sudeste 6 Sudeste 0 945.1 0.7 100
2020-01-11 20:00:00 0 0 Calma 5 Sur 0 945.2 0.9 100
2020-01-11 19:00:00 -0.2 3 Oeste 8 Este 0 944.9 0.4 99
2020-01-11 18:00:00 0.2 3 Sudeste 7 Sudeste 0 944.4 -0.4 98
2020-01-11 17:00:00 0.4 3 Sudeste 8 Sudeste 0 944.3 -1 97
2020-01-11 16:00:00 0.5 4 Sudeste 10 Sudeste 0 944.5 -1.7 98
2020-01-11 15:00:00 0.6 4 Sur 9 Sudeste 0 944.8 -1.9 98
2020-01-11 14:00:00 0.1 5 Sudoeste 10 Sudoeste 0 945.3 -1.4 99
2020-01-11 13:00:00 -0.3 3 Sur 8 Sudeste 0 946.2 0 99
2020-01-11 12:00:00 -0.6 2 Este 8 Sudeste 0 946.7 1 99
2020-01-11 11:00:00 -1.2 3 Sur 9 Sur 0 946.7 1.2 99
2020-01-11 10:00:00 -2.3 8 Sur 14 Sudoeste 0 946.2 0.9 98
2020-01-11 09:00:00 -1.7 2 Noroeste 4 Este 0 945.7 0.4 98
2020-01-11 08:00:00 -1.4 0 Calma 4 Norte 0 945.5 0.2 98
2020-01-11 07:00:00 -1.1 4 Noroeste 8 Noroeste 0 945.3 -0.2 98
2020-01-11 06:00:00 -0.8 3 Noroeste 8 Oeste 0 945.3 -0.3 98
2020-01-11 05:00:00 -0.6 3 Sudeste 5 Sudeste 0 945.3 -0.2 98
2020-01-11 04:00:00 -0.3 2 Nordeste 7 Noroeste 0 945.5 -0.1 97
2020-01-11 03:00:00 0 4 Noroeste 9 Noroeste 0 945.6 -0.1 96
2020-01-11 02:00:00 0.5 2 Oeste 9 Oeste 0 945.5 -0.2 95
2020-01-11 01:00:00 1 4 Noroeste 11 Este 0 945.6 0.1 94
2020-01-11 00:00:00 1.3 2 Norte 9 Noroeste 0 945.7 0.5 92
2020-01-10 23:00:00 1.8 6 Oeste 9 Noroeste 0 945.7 0.6 91
2020-01-10 22:00:00 2.5 2 Norte 8 Oeste 0 945.5 1.1 88
2020-01-10 21:00:00 3.9 0 Calma 8 Este 0 945.2 1 83
2020-01-10 20:00:00 4.6 3 Norte 13 Norte 0 945.1 1.3 80
2020-01-10 19:00:00 5 3 Norte 7 Noroeste 0 944.4 0.7 76
2020-01-10 18:00:00 6.1 3 Norte 9 Nordeste 0 944.2 0.9 69
2020-01-10 17:00:00 7.5 4 Nordeste 13 Norte 0 943.8 0.2 63
2020-01-10 16:00:00 8.4 5 Norte 14 Noroeste 0 943.7 -0.5 60
2020-01-10 15:00:00 9.2 4 Nordeste 12 Este 0 943.3 -1.4 59
2020-01-10 14:00:00 8.4 3 Norte 12 Este 0 943.6 -0.4 65
2020-01-10 13:00:00 6.6 6 Este 12 Este 0 944.2 0.9 71
2020-01-10 12:00:00 4.2 3 Norte 9 Este 0 944.7 1.9 81
2020-01-10 11:00:00 2.4 3 Norte 6 Noroeste 0 944 1.5 88
2020-01-10 10:00:00 0.7 3 Oeste 8 Oeste 0 943.3 1.2 95
2020-01-10 09:00:00 -0.3 0 Calma 4 Sudeste 0 942.8 1.5 95
2020-01-10 08:00:00 -0.2 2 Norte 7 Nordeste 0 942.5 1.4 94
2020-01-10 07:00:00 0.3 4 Sudeste 8 Oeste 0 942.1 0.9 91
2020-01-10 06:00:00 0.9 5 Oeste 13 Sudoeste 0 941.3 0.3 88
2020-01-10 05:00:00 2.1 9 Sur 12 Sudoeste 0 941.1 0.6 85
2020-01-10 04:00:00 2.2 3 Oeste 14 Noroeste 0 941.2 0.6 84
2020-01-10 03:00:00 2.2 4 Sudoeste 17 Noroeste 0 941 0.4 84
2020-01-10 02:00:00 2.3 6 Noroeste 14 Oeste 0 940.5 0.3 84
2020-01-10 01:00:00 3.5 3 Oeste 21 Oeste 0 940.6 1.5 82
2020-01-10 00:00:00 3.8 10 Noroeste 21 Oeste 0 940.6 1.7 88
2020-01-09 23:00:00 4.6 10 Noroeste 24 Oeste 0 940.2 1.5 96
2020-01-09 22:00:00 6.3 9 Oeste 28 Oeste 0 939.1 0.7 91
2020-01-09 21:00:00 7.5 13 Oeste 26 Oeste 0 938.9 0.7 90
2020-01-09 20:00:00 8.9 10 Oeste 30 Oeste 0 938.7 0.7 87
2020-01-09 19:00:00 9.8 10 Oeste 28 Oeste 0 938.4 1.3 89
2020-01-09 18:00:00 10 5 Sudoeste 26 Sudoeste 0 938.2 0.5 89
2020-01-09 17:00:00 10.2 12 Sudoeste 25 Oeste 0 938 -1.1 89
2020-01-09 16:00:00 9.9 8 Sur 19 Sur 0 937.1 -3.3 88
2020-01-09 15:00:00 8 5 Sur 19 Sur 0 937.7 -3.4 90
2020-01-09 14:00:00 6 10 Sur 20 Sur 0 939.1 -1.8 87
2020-01-09 13:00:00 4.4 8 Sur 15 Sur 0 940.4 -0.5 87
2020-01-09 12:00:00 2.4 6 Sur 13 Sudoeste 0 941.1 0.4 90
2020-01-09 11:00:00 1.1 8 Sur 15 Sur 0 940.9 0.6 94
2020-01-09 10:00:00 0.5 3 Sur 13 Sur 0 940.9 0.5 99
2020-01-09 09:00:00 0 5 Sur 12 Sur 0 940.7 0.2 100
2020-01-09 08:00:00 0 5 Sudeste 9 Sur 0 940.3 -0.6 100
2020-01-09 07:00:00 -0.3 0 Calma 7 Sur 0 940.4 -0.7 99
2020-01-09 06:00:00 0.2 0 Calma 7 Sur 0 940.5 -0.7 99
2020-01-09 05:00:00 0.5 4 Sur 11 Sur 0 940.9 -0.7 99
2020-01-09 04:00:00 0.3 2 Sur 6 Sur 0 941.1 -0.9 99
2020-01-09 03:00:00 1 4 Sudeste 10 Sur 0 941.2 -1.2 99
2020-01-09 02:00:00 1.4 0 Calma 9 Sudeste 0 941.6 -0.7 98
2020-01-09 01:00:00 1.7 3 Oeste 5 Oeste 0 942 -0.4 98
2020-01-09 00:00:00 2.3 2 Sur 5 Sudeste 0 942.4 0.2 98
2020-01-08 23:00:00 2.5 2 Sudeste 5 Sudeste 0 942.3 -0.1 97
2020-01-08 22:00:00 2.6 4 Oeste 5 Oeste 0 942.4 0 96
2020-01-08 21:00:00 2.9 0 Calma 5 Oeste 0 942.2 -0.2 94
2020-01-08 20:00:00 3.9 3 Sudoeste 8 Sudoeste 0 942.4 0.2 91
2020-01-08 19:00:00 4.9 4 Sur 8 Sudoeste 0 942.4 0.2 88
2020-01-08 18:00:00 5.8 4 Sur 13 Sur 0 942.4 -0.1 84
2020-01-08 17:00:00 6.5 7 Sudoeste 12 Sudoeste 0 942.2 -1.2 81
2020-01-08 16:00:00 7.3 6 Sur 12 Sur 0 942.2 -2 74
2020-01-08 15:00:00 6 5 Sur 11 Sudeste 0 942.5 -3 74
2020-01-08 14:00:00 4 3 Sudoeste 9 Sur 0 943.4 -2.2 84
2020-01-08 13:00:00 1.3 3 Sudoeste 10 Oeste 0 944.2 -1.1 99
2020-01-08 12:00:00 -0.1 3 Sudoeste 8 Sudoeste 0 945.5 0.5 100
2020-01-08 11:00:00 -1 2 Sudoeste 6 Sudeste 0 945.6 0.9 100
2020-01-08 10:00:00 -1.6 0 Calma 4 Noroeste 0 945.3 0.8 100
2020-01-08 09:00:00 -2.1 0 Calma 6 Noroeste 0 945 0.2 100
2020-01-08 08:00:00 -1.9 3 Noroeste 8 Norte 0 944.7 -0.1 100
2020-01-08 07:00:00 -1.9 2 Nordeste 9 Noroeste 0 944.5 -0.5 100
2020-01-08 06:00:00 -1.9 3 Norte 8 Noroeste 0 944.8 -0.3 100
2020-01-08 05:00:00 -2.3 3 Oeste 6 Noroeste 0 944.8 -0.6 100
2020-01-08 04:00:00 -2.4 3 Sudeste 8 Sur 0 945 -1 100
2020-01-08 03:00:00 -1.9 0 Calma 4 Sudeste 0 945.1 -0.9 100
2020-01-08 02:00:00 -1.8 2 Este 7 Sudeste 0 945.4 -0.7 100
2020-01-08 01:00:00 -1.3 4 Sudoeste 8 Este 0 946 -0.2 100
2020-01-08 00:00:00 -0.9 4 Sudeste 8 Sudeste 0 946 0.2 100
2020-01-07 23:00:00 -0.9 2 Sudeste 8 Sur 0 946.1 0.5 100
2020-01-07 22:00:00 -0.8 0 Calma 6 Nordeste 0 946.2 0.5 99
2020-01-07 21:00:00 -1 2 Nordeste 9 Sudoeste 0 945.8 0.5 98
2020-01-07 20:00:00 -0.7 7 Sudoeste 11 Sudoeste 0 945.6 0.3 96
2020-01-07 19:00:00 -0.2 2 Noroeste 4 Sudeste 0 945.7 0.2 93
2020-01-07 18:00:00 1 4 Sudeste 6 Sur 0 945.3 -0.3 88
2020-01-07 17:00:00 1.5 0 Calma 8 Oeste 0 945.3 -0.8 86
2020-01-07 16:00:00 2.3 2 Noroeste 10 Oeste 0 945.5 -1.8 81
2020-01-07 15:00:00 2 6 Sur 10 Sur 0 945.6 -2 82
2020-01-07 14:00:00 1.1 2 Norte 6 Oeste 0 946.1 -1.4 92
2020-01-07 13:00:00 -0.8 3 Noroeste 7 Sudeste 0 947.3 0.4 99
2020-01-07 12:00:00 -1.7 3 Este 10 Sudeste 0 947.6 0.7 100
2020-01-07 11:00:00 -2.1 4 Sudeste 8 Este 0 947.5 0.9 100
2020-01-07 10:00:00 -2.4 4 Sudeste 8 Este 0 946.9 1 100
2020-01-07 09:00:00 -2.3 3 Este 9 Noroeste 0 946.9 1 100
2020-01-07 08:00:00 -2.6 4 Noroeste 9 Noroeste 0 946.6 0.4 100
2020-01-07 07:00:00 -2.9 2 Noroeste 7 Norte 0 945.9 -0.4 100
2020-01-07 06:00:00 -3.1 0 Calma 7 Noroeste 0 945.9 -0.1 100
2020-01-07 05:00:00 -2.6 4 Norte 10 Norte 0 946.2 0.4 100
2020-01-07 04:00:00 -2 4 Noroeste 8 Noroeste 0 946.3 0.3 100
2020-01-07 03:00:00 -1.7 3 Noroeste 9 Norte 0 946 0.3 100
2020-01-07 02:00:00 -1.5 5 Nordeste 12 Este 0 945.8 0 100
2020-01-07 01:00:00 -1.2 2 Nordeste 10 Norte 0 946 0.4 100
2020-01-07 00:00:00 -0.5 3 Este 8 Este 0 945.7 0.9 99
2020-01-06 23:00:00 0 5 Este 7 Este 0 945.8 0.7 99
2020-01-06 22:00:00 0.1 3 Nordeste 8 Sur 0 945.6 1.3 99
2020-01-06 21:00:00 0.1 2 Nordeste 7 Nordeste 0 944.8 1.4 99
2020-01-06 20:00:00 0.2 3 Norte 8 Nordeste 0 945.1 2.2 99
2020-01-06 19:00:00 0.5 3 Noroeste 9 Noroeste 0 944.3 1.5 98
2020-01-06 18:00:00 0.7 2 Nordeste 9 Este 0 943.4 0.6 97
2020-01-06 17:00:00 0.7 3 Nordeste 8 Norte 0 942.9 0 96
2020-01-06 16:00:00 0.9 2 Oeste 8 Este 0 942.8 -0.7 96
2020-01-06 15:00:00 0.2 3 Norte 6 Nordeste 0 942.8 -1.5 98
2020-01-06 14:00:00 -0.4 3 Nordeste 7 Este 0 942.9 -1.7 100
2020-01-06 13:00:00 -0.9 5 Sudeste 9 Sudeste 0 943.5 -0.4 100
2020-01-06 12:00:00 -1.3 4 Este 8 Este 0 944.3 0.9 100
2020-01-06 11:00:00 -1.6 3 Oeste 10 Oeste 0 944.6 1.7 100
2020-01-06 10:00:00 -1.7 3 Sur 10 Sur 0 943.9 1.2 100